Time;durP1;ratioP1;P1;durP2;ratioP2;P2;SDS_P1;SDS_P2;PMS_P1;PMS_P2;Temp;Humidity;BMP_temperature;BMP_pressure;BME280_temperature;BME280_humidity;BME280_pressure;Samples;Min_cycle;Max_cycle;Signal;HPM_P1;HPM_P2
2023/03/30 00:01:54;;;;;;;7.28;4.10;;;22.90;35.70;;;;;;6131621;28;81161;-63
2023/03/30 00:04:54;;;;;;;6.10;4.43;;;22.90;35.10;;;;;;6132265;28;80407;-63
2023/03/30 00:07:55;;;;;;;6.65;4.45;;;22.90;35.20;;;;;;6120180;28;80359;-63
2023/03/30 00:10:55;;;;;;;9.80;4.43;;;22.90;35.20;;;;;;6130635;28;80218;-62
2023/03/30 00:13:56;;;;;;;10.48;4.50;;;22.90;35.30;;;;;;6132931;28;80810;-76
2023/03/30 00:16:56;;;;;;;7.07;3.90;;;22.90;35.40;;;;;;6131045;28;80862;-69
2023/03/30 00:19:57;;;;;;;7.03;4.18;;;22.90;35.60;;;;;;6131018;28;80547;-69
2023/03/30 00:22:58;;;;;;;8.45;4.30;;;22.90;35.60;;;;;;6118663;28;83033;-69
2023/03/30 00:25:58;;;;;;;6.97;4.00;;;22.90;35.70;;;;;;6131308;28;80564;-72
2023/03/30 00:28:59;;;;;;;7.53;3.88;;;22.90;35.70;;;;;;6131240;28;80497;-74
2023/03/30 00:32:00;;;;;;;6.30;4.10;;;22.90;35.50;;;;;;6114072;28;81450;-75
2023/03/30 00:35:00;;;;;;;8.77;3.40;;;22.90;35.60;;;;;;6101938;28;80548;-73
2023/03/30 00:38:02;;;;;;;5.85;4.03;;;22.90;35.50;;;;;;6129968;28;81112;-73
2023/03/30 00:41:02;;;;;;;8.10;4.10;;;22.90;35.80;;;;;;6129757;28;80516;-74
2023/03/30 00:44:03;;;;;;;5.45;3.92;;;22.90;35.60;;;;;;6124204;28;81776;-69
2023/03/30 00:47:04;;;;;;;6.30;3.60;;;22.90;35.40;;;;;;6131504;28;80458;-71
2023/03/30 00:50:04;;;;;;;7.90;4.10;;;22.90;35.30;;;;;;6129892;28;80496;-64
2023/03/30 00:53:05;;;;;;;5.57;3.65;;;22.90;35.30;;;;;;6129033;28;79995;-64
2023/03/30 00:56:06;;;;;;;6.57;4.10;;;22.90;35.00;;;;;;6129392;28;80820;-65
2023/03/30 00:59:07;;;;;;;8.35;3.97;;;22.90;35.00;;;;;;6130074;28;80936;-66
2023/03/30 01:02:08;;;;;;;5.22;3.65;;;22.90;35.20;;;;;;6130654;28;81792;-65
2023/03/30 01:05:09;;;;;;;6.78;3.70;;;22.90;34.90;;;;;;6127954;28;80861;-65
2023/03/30 01:08:12;;;;;;;5.40;3.97;;;22.90;34.80;;;;;;6126715;28;80372;-64
2023/03/30 01:11:14;;;;;;;6.50;3.33;;;22.90;34.80;;;;;;6110328;28;82389;-63
2023/03/30 01:14:15;;;;;;;5.63;3.13;;;22.90;34.90;;;;;;6109834;28;83302;-64
2023/03/30 01:17:15;;;;;;;6.15;3.22;;;22.80;34.80;;;;;;6127314;28;80434;-64
2023/03/30 01:20:16;;;;;;;3.92;2.67;;;22.90;34.80;;;;;;6108938;28;83963;-65
2023/03/30 01:23:17;;;;;;;5.85;3.40;;;22.90;34.60;;;;;;6115193;28;80395;-64
2023/03/30 01:26:19;;;;;;;5.32;3.28;;;22.90;34.60;;;;;;6128938;28;87343;-62
2023/03/30 01:29:19;;;;;;;4.20;3.00;;;22.90;34.50;;;;;;6130249;28;80418;-62
2023/03/30 01:32:20;;;;;;;5.68;3.40;;;22.90;34.60;;;;;;6129937;28;80323;-61
2023/03/30 01:35:21;;;;;;;4.55;2.88;;;22.90;34.60;;;;;;6129139;28;82732;-61
2023/03/30 01:38:21;;;;;;;5.22;3.22;;;22.90;34.50;;;;;;6129241;28;80608;-62
2023/03/30 01:41:22;;;;;;;4.93;3.08;;;22.90;34.40;;;;;;6099676;28;81803;-63
2023/03/30 01:44:22;;;;;;;4.32;3.10;;;22.90;34.60;;;;;;6129734;28;80433;-59
2023/03/30 01:47:24;;;;;;;4.93;3.10;;;22.90;35.10;;;;;;6129056;28;81679;-59
2023/03/30 01:50:24;;;;;;;5.40;3.15;;;22.90;34.50;;;;;;6129271;28;80503;-59
2023/03/30 01:53:25;;;;;;;5.10;3.00;;;22.90;34.50;;;;;;6112724;28;83477;-60
2023/03/30 01:56:26;;;;;;;4.25;2.92;;;22.90;34.40;;;;;;6100449;28;82620;-60
2023/03/30 01:59:26;;;;;;;5.25;3.28;;;22.90;34.50;;;;;;6107452;28;83608;-60
2023/03/30 02:02:27;;;;;;;5.47;3.22;;;22.90;34.50;;;;;;6112033;28;83637;-59
2023/03/30 02:05:28;;;;;;;5.20;3.05;;;22.90;34.40;;;;;;6129960;28;80386;-60
2023/03/30 02:08:30;;;;;;;5.00;3.03;;;22.90;34.50;;;;;;6128804;28;82210;-60
2023/03/30 02:11:30;;;;;;;6.25;3.67;;;22.90;34.50;;;;;;6128057;28;83634;-60
2023/03/30 02:14:32;;;;;;;4.70;3.30;;;22.90;34.60;;;;;;6110758;28;80940;-61
2023/03/30 02:17:34;;;;;;;4.95;3.03;;;22.90;34.50;;;;;;6111117;28;82117;-61
2023/03/30 02:20:35;;;;;;;5.82;3.42;;;22.90;34.60;;;;;;6100277;28;80085;-65
2023/03/30 02:23:36;;;;;;;6.75;3.75;;;22.90;34.60;;;;;;6089167;28;83472;-64
2023/03/30 02:26:36;;;;;;;5.68;3.55;;;22.90;34.60;;;;;;6104728;28;80265;-64
2023/03/30 02:29:37;;;;;;;4.50;2.92;;;22.80;34.50;;;;;;6112024;28;81000;-64
2023/03/30 02:32:37;;;;;;;7.55;3.30;;;22.80;34.70;;;;;;6126659;28;81447;-63
2023/03/30 02:35:38;;;;;;;5.78;3.10;;;22.80;34.80;;;;;;6112022;28;83437;-63
2023/03/30 02:38:38;;;;;;;4.35;2.80;;;22.80;34.60;;;;;;6109210;28;82742;-60
2023/03/30 02:41:39;;;;;;;6.03;3.58;;;22.80;34.70;;;;;;6111901;28;83285;-62
2023/03/30 02:44:40;;;;;;;4.68;3.10;;;22.90;34.70;;;;;;6120905;28;82290;-60
2023/03/30 02:47:40;;;;;;;5.45;3.10;;;22.90;34.70;;;;;;6110328;28;82276;-60
2023/03/30 02:50:41;;;;;;;4.43;3.17;;;22.90;34.80;;;;;;6115256;28;83228;-60
2023/03/30 02:53:52;;;;;;;3.97;3.05;;;22.90;34.80;;;;;;6103382;28;80672;-61
2023/03/30 02:57:07;;;;;;;5.13;3.08;;;22.90;34.40;;;;;;6109546;28;81928;-59
2023/03/30 03:00:07;;;;;;;6.03;3.15;;;22.90;34.40;;;;;;6100646;28;83431;-60
2023/03/30 03:03:08;;;;;;;4.15;3.10;;;22.80;34.40;;;;;;6109537;28;82948;-60
2023/03/30 03:06:10;;;;;;;4.57;2.88;;;22.80;34.30;;;;;;6097607;28;83017;-60
2023/03/30 03:09:16;;;;;;;6.80;2.72;;;22.80;34.50;;;;;;6112571;28;81270;-59
2023/03/30 03:12:17;;;;;;;6.80;2.92;;;22.80;34.50;;;;;;6112084;28;83428;-59
2023/03/30 03:15:17;;;;;;;4.20;2.63;;;22.80;34.30;;;;;;6093069;28;83250;-63
2023/03/30 03:18:38;;;;;;;6.07;2.67;;;22.90;34.30;;;;;;6114695;28;83308;-63
2023/03/30 03:21:39;;;;;;;4.15;2.50;;;22.90;34.00;;;;;;6105485;28;83449;-63
2023/03/30 03:24:40;;;;;;;5.55;3.00;;;22.90;33.90;;;;;;6109259;28;83258;-62
2023/03/30 03:27:59;;;;;;;3.28;2.10;;;23.00;33.90;;;;;;6126362;28;82097;-62
2023/03/30 03:31:04;;;;;;;4.97;3.30;;;23.00;34.00;;;;;;6145711;28;81490;-64
2023/03/30 03:34:05;;;;;;;3.67;2.60;;;23.10;34.00;;;;;;6111499;28;82452;-67
2023/03/30 03:37:32;;;;;;;4.03;2.50;;;23.10;33.90;;;;;;6113303;28;87725;-65
2023/03/30 03:40:32;;;;;;;5.57;3.25;;;23.10;33.90;;;;;;6140024;28;80511;-64
2023/03/30 03:43:33;;;;;;;5.45;2.53;;;23.20;33.90;;;;;;6148422;28;82710;-67
2023/03/30 03:46:34;;;;;;;5.88;2.95;;;23.20;34.00;;;;;;6131727;28;83607;-66
2023/03/30 03:49:34;;;;;;;3.03;2.30;;;23.20;33.90;;;;;;6140625;28;81686;-65
2023/03/30 03:52:35;;;;;;;5.70;2.78;;;23.20;33.80;;;;;;6146901;28;82142;-68
2023/03/30 03:55:36;;;;;;;4.13;2.92;;;23.30;34.10;;;;;;6149297;28;80261;-65
2023/03/30 03:58:36;;;;;;;3.35;2.70;;;23.30;34.20;;;;;;6137950;28;81375;-59
2023/03/30 04:01:37;;;;;;;5.00;2.67;;;23.30;34.30;;;;;;6106056;28;83957;-62
2023/03/30 04:04:37;;;;;;;4.90;2.75;;;23.30;34.20;;;;;;6109708;28;81317;-60
2023/03/30 04:07:38;;;;;;;4.07;2.70;;;23.30;34.10;;;;;;6122626;28;83723;-60
2023/03/30 04:10:38;;;;;;;4.00;2.38;;;23.30;34.10;;;;;;6132664;28;82408;-60
2023/03/30 04:14:02;;;;;;;3.00;2.20;;;23.30;34.30;;;;;;6094810;28;80834;-58
2023/03/30 04:17:32;;;;;;;3.88;2.70;;;23.30;34.50;;;;;;6126706;28;85187;-64
2023/03/30 04:21:16;;;;;;;6.85;3.08;;;23.30;34.30;;;;;;6117386;28;83287;-63
2023/03/30 04:24:17;;;;;;;4.25;3.13;;;23.30;34.20;;;;;;6146490;28;80678;-62
2023/03/30 04:27:57;;;;;;;5.50;3.17;;;23.30;34.00;;;;;;6078952;28;80535;-62
2023/03/30 04:31:11;;;;;;;3.92;2.53;;;23.30;34.10;;;;;;6071559;28;81076;-63
2023/03/30 04:34:30;;;;;;;6.20;2.67;;;23.30;34.40;;;;;;6147322;28;84630;-66
2023/03/30 04:37:31;;;;;;;5.18;3.17;;;23.30;34.80;;;;;;6129736;28;80447;-61
2023/03/30 04:40:52;;;;;;;5.32;2.13;;;23.30;35.10;;;;;;6153497;28;81362;-59
2023/03/30 04:44:04;;;;;;;3.95;2.47;;;23.30;35.30;;;;;;6137400;28;83178;-62
2023/03/30 04:47:25;;;;;;;7.15;2.55;;;23.30;35.40;;;;;;6149885;28;83785;-60
2023/03/30 04:50:48;;;;;;;3.78;2.13;;;23.30;35.40;;;;;;6093815;28;80610;-64
2023/03/30 04:54:04;;;;;;;4.70;2.67;;;23.40;35.40;;;;;;6136994;28;81570;-62
2023/03/30 04:57:34;;;;;;;5.47;2.38;;;23.40;35.20;;;;;;6065887;28;81137;-60
2023/03/30 05:00:55;;;;;;;4.82;2.72;;;23.40;34.80;;;;;;6124173;28;81461;-63
2023/03/30 05:04:14;;;;;;;7.00;2.75;;;23.40;34.80;;;;;;6124222;28;84889;-64
2023/03/30 05:07:24;;;;;;;7.00;2.80;;;23.40;34.50;;;;;;6140265;28;80636;-65
2023/03/30 05:10:45;;;;;;;5.43;2.28;;;23.40;34.50;;;;;;6136095;28;80230;-64
2023/03/30 05:14:05;;;;;;;3.67;2.53;;;23.40;34.30;;;;;;6119279;28;80380;-64
2023/03/30 05:17:19;;;;;;;6.10;2.95;;;23.40;34.20;;;;;;6124085;28;83571;-63
2023/03/30 05:20:48;;;;;;;5.03;2.60;;;23.30;34.10;;;;;;6056542;28;82960;-64
2023/03/30 05:24:01;;;;;;;3.60;2.70;;;23.30;33.90;;;;;;6122512;28;82204;-73
2023/03/30 05:27:24;;;;;;;4.05;2.50;;;23.10;33.30;;;;;;6115533;28;83148;-69
2023/03/30 05:30:45;;;;;;;4.78;2.88;;;22.90;33.40;;;;;;6112778;28;82266;-74
2023/03/30 05:34:05;;;;;;;8.30;3.28;;;22.80;33.50;;;;;;6153265;28;80658;-75
2023/03/30 05:37:24;;;;;;;7.13;3.30;;;22.60;33.40;;;;;;6150061;28;84767;-68
2023/03/30 05:40:54;;;;;;;6.97;3.33;;;22.60;33.40;;;;;;6149407;28;80495;-76
2023/03/30 05:44:03;;;;;;;4.90;2.47;;;22.40;33.30;;;;;;6154563;28;83721;-60
2023/03/30 05:47:23;;;;;;;7.15;2.90;;;22.30;33.40;;;;;;6155206;28;80078;-57
2023/03/30 05:50:43;;;;;;;4.57;2.70;;;22.30;33.50;;;;;;6154242;28;79948;-59
2023/03/30 05:53:53;;;;;;;12.20;3.10;;;22.20;33.40;;;;;;6144606;28;80783;-59
2023/03/30 05:57:11;;;;;;;7.30;2.67;;;22.10;33.60;;;;;;6153295;28;82201;-58
2023/03/30 06:00:20;;;;;;;4.95;2.80;;;22.10;33.60;;;;;;6140145;28;82737;-65
2023/03/30 06:03:33;;;;;;;5.38;3.13;;;22.00;33.60;;;;;;6150766;28;83300;-65
2023/03/30 06:06:33;;;;;;;5.55;2.75;;;22.00;33.70;;;;;;6152227;28;82248;-66
2023/03/30 06:09:34;;;;;;;5.22;3.28;;;22.00;33.70;;;;;;6139863;28;83938;-66
2023/03/30 06:12:40;;;;;;;7.68;3.30;;;21.90;33.80;;;;;;6150377;28;83251;-67
2023/03/30 06:15:48;;;;;;;11.55;3.28;;;21.90;33.80;;;;;;6151162;28;81938;-65
2023/03/30 06:18:53;;;;;;;7.97;2.70;;;21.90;33.90;;;;;;6152112;28;83255;-66
2023/03/30 06:21:55;;;;;;;6.03;2.63;;;21.80;34.00;;;;;;6142795;28;83267;-66
2023/03/30 06:25:05;;;;;;;8.88;3.10;;;21.80;34.00;;;;;;6148348;28;82976;-67
2023/03/30 06:28:06;;;;;;;5.78;3.47;;;21.80;34.10;;;;;;6153192;28;83286;-66
2023/03/30 06:31:09;;;;;;;8.32;3.05;;;21.80;34.10;;;;;;6151779;28;87384;-68
2023/03/30 06:34:10;;;;;;;8.45;2.85;;;21.70;34.40;;;;;;6154062;28;81408;-62
2023/03/30 06:37:10;;;;;;;6.35;2.85;;;21.70;34.40;;;;;;6151623;28;80979;-58
2023/03/30 06:40:12;;;;;;;8.50;3.10;;;21.70;34.40;;;;;;6131437;28;82985;-58
2023/03/30 06:43:13;;;;;;;5.88;2.95;;;21.70;34.50;;;;;;6152800;28;86588;-57
2023/03/30 06:46:19;;;;;;;6.20;2.95;;;21.70;34.50;;;;;;6153505;28;81801;-56
2023/03/30 06:49:22;;;;;;;5.53;2.85;;;21.70;34.70;;;;;;6152456;28;82973;-59
2023/03/30 06:52:46;;;;;;;5.30;2.85;;;21.80;34.70;;;;;;6149051;28;81192;-56
2023/03/30 06:55:47;;;;;;;7.07;3.50;;;21.90;34.70;;;;;;6147552;28;82436;-58
2023/03/30 06:58:52;;;;;;;5.55;3.40;;;22.10;34.70;;;;;;6152409;28;82925;-59
2023/03/30 07:01:53;;;;;;;4.28;2.63;;;22.10;34.60;;;;;;6149448;28;83233;-58
2023/03/30 07:05:23;;;;;;;6.10;3.08;;;22.10;34.60;;;;;;6149262;28;81940;-57
2023/03/30 07:08:39;;;;;;;7.10;3.80;;;22.20;34.60;;;;;;6141268;28;82973;-58
2023/03/30 07:11:40;;;;;;;7.50;3.67;;;22.20;34.60;;;;;;6152065;28;82589;-59
2023/03/30 07:14:41;;;;;;;7.50;4.15;;;22.20;34.50;;;;;;6151780;28;81983;-68
2023/03/30 07:17:42;;;;;;;7.07;4.13;;;22.30;34.60;;;;;;6152586;28;83097;-68
2023/03/30 07:20:43;;;;;;;10.32;4.10;;;22.30;34.50;;;;;;6142527;28;83609;-70
2023/03/30 07:23:53;;;;;;;6.25;3.53;;;22.40;34.50;;;;;;6131115;28;83367;-67
2023/03/30 07:27:04;;;;;;;6.18;3.25;;;22.40;34.50;;;;;;6143991;28;82876;-68
2023/03/30 07:30:06;;;;;;;6.53;3.80;;;22.50;34.50;;;;;;6150462;28;80536;-67
2023/03/30 07:33:07;;;;;;;6.32;3.50;;;22.50;34.50;;;;;;6152322;28;83286;-64
2023/03/30 07:36:07;;;;;;;6.20;2.92;;;22.60;34.50;;;;;;6146003;28;83193;-66
2023/03/30 07:39:08;;;;;;;3.83;2.40;;;22.70;34.50;;;;;;6151558;28;82562;-66
2023/03/30 07:42:11;;;;;;;7.10;2.90;;;22.70;34.40;;;;;;6152118;28;82102;-64
2023/03/30 07:45:12;;;;;;;5.55;3.00;;;22.80;34.50;;;;;;6150588;28;83054;-63
2023/03/30 07:48:13;;;;;;;7.95;3.47;;;22.80;34.60;;;;;;6126222;28;83704;-64
2023/03/30 07:51:14;;;;;;;5.57;3.10;;;22.80;34.50;;;;;;6163565;28;81381;-63
2023/03/30 07:54:36;;;;;;;5.82;3.22;;;22.90;34.50;;;;;;6150597;28;83565;-60
2023/03/30 07:57:48;;;;;;;6.43;2.78;;;23.00;34.40;;;;;;6149774;28;83423;-62
2023/03/30 08:00:49;;;;;;;5.55;2.75;;;23.00;34.30;;;;;;6151959;28;80549;-61
2023/03/30 08:04:26;;;;;;;2.92;2.33;;;23.00;34.40;;;;;;6148519;28;84947;-61
2023/03/30 08:07:29;;;;;;;6.63;2.55;;;23.00;34.40;;;;;;6137176;28;83236;-62
2023/03/30 08:10:37;;;;;;;6.72;2.63;;;23.10;34.40;;;;;;6151530;28;81918;-64
2023/03/30 08:13:37;;;;;;;4.65;2.58;;;23.10;34.40;;;;;;6153435;28;83401;-63
2023/03/30 08:16:38;;;;;;;5.40;2.35;;;23.10;34.30;;;;;;6156631;28;81144;-64
2023/03/30 08:19:39;;;;;;;6.45;3.00;;;23.20;34.30;;;;;;6153659;28;81991;-65
2023/03/30 08:22:40;;;;;;;3.17;2.20;;;23.20;34.30;;;;;;6150557;28;80596;-64
2023/03/30 08:25:41;;;;;;;4.32;2.45;;;23.20;34.30;;;;;;6155538;28;80946;-64
2023/03/30 08:28:41;;;;;;;5.70;2.75;;;23.20;34.20;;;;;;6156140;28;81357;-62
2023/03/30 08:31:42;;;;;;;4.28;1.90;;;23.20;34.30;;;;;;6128002;28;80568;-62
2023/03/30 08:34:43;;;;;;;6.18;2.30;;;23.20;34.20;;;;;;6131504;28;81125;-62
2023/03/30 08:37:44;;;;;;;4.57;2.60;;;23.30;34.10;;;;;;6121887;28;80613;-63
2023/03/30 08:40:44;;;;;;;3.83;2.03;;;23.30;34.00;;;;;;6116758;28;83273;-63
2023/03/30 08:43:45;;;;;;;5.15;2.55;;;23.30;33.90;;;;;;6130448;28;83316;-63
2023/03/30 08:46:47;;;;;;;4.45;2.60;;;23.40;33.80;;;;;;6126461;28;80152;-64
2023/03/30 08:49:47;;;;;;;3.88;2.10;;;23.50;33.70;;;;;;6129208;28;80392;-64
2023/03/30 08:52:48;;;;;;;4.00;2.25;;;23.50;33.60;;;;;;6132022;28;81460;-65
2023/03/30 08:55:48;;;;;;;4.32;2.47;;;23.50;33.50;;;;;;6132269;28;80461;-65
2023/03/30 08:58:49;;;;;;;2.60;1.90;;;23.50;33.40;;;;;;6114732;28;81658;-65
2023/03/30 09:01:50;;;;;;;4.57;2.28;;;23.50;33.40;;;;;;6127558;28;81942;-66
2023/03/30 09:04:55;;;;;;;2.95;2.33;;;23.50;33.50;;;;;;6132447;28;80067;-60
2023/03/30 09:07:56;;;;;;;;;;;23.50;33.50;;;;;;6130990;28;81407;-58
2023/03/30 09:10:56;;;;;;;3.85;2.05;;;23.50;33.60;;;;;;6136143;28;80468;-58
2023/03/30 09:14:00;;;;;;;3.75;2.22;;;23.50;33.70;;;;;;6126808;28;80904;-58
2023/03/30 09:17:01;;;;;;;4.70;2.15;;;23.50;33.90;;;;;;6124843;28;82762;-58
2023/03/30 09:20:01;;;;;;;3.40;2.25;;;23.50;34.40;;;;;;6130791;28;80865;-59
2023/03/30 09:23:02;;;;;;;3.75;1.95;;;23.50;34.90;;;;;;6121076;28;82353;-63
2023/03/30 09:26:03;;;;;;;4.72;2.17;;;23.50;35.00;;;;;;6126853;28;81863;-71
2023/03/30 09:29:03;;;;;;;3.13;2.03;;;23.50;35.10;;;;;;6129016;28;81235;-66
2023/03/30 09:32:05;;;;;;;5.00;1.70;;;23.50;35.20;;;;;;6127628;28;81259;-65
2023/03/30 09:35:06;;;;;;;2.55;2.03;;;23.50;35.30;;;;;;6129065;28;80389;-66
2023/03/30 09:38:07;;;;;;;4.03;1.75;;;23.50;35.40;;;;;;6128404;28;80879;-66
2023/03/30 09:41:07;;;;;;;3.42;1.92;;;23.50;35.30;;;;;;6121907;28;83486;-73
2023/03/30 09:44:08;;;;;;;20.73;1.90;;;23.50;35.50;;;;;;6121529;28;81295;-72
2023/03/30 09:47:08;;;;;;;2.75;1.80;;;23.50;35.60;;;;;;6121708;28;82586;-68
2023/03/30 09:50:09;;;;;;;3.08;2.00;;;23.60;35.50;;;;;;6126606;28;80248;-69
2023/03/30 09:53:09;;;;;;;3.50;1.70;;;23.50;35.40;;;;;;6124931;28;80632;-68
2023/03/30 09:56:10;;;;;;;5.20;2.40;;;23.50;35.50;;;;;;6131402;28;80550;-68
2023/03/30 09:59:10;;;;;;;3.40;2.00;;;23.50;35.60;;;;;;6127722;28;80612;-61
2023/03/30 10:02:11;;;;;;;5.45;2.25;;;23.60;35.70;;;;;;6117928;28;80805;-61
2023/03/30 10:05:12;;;;;;;2.63;1.95;;;23.50;35.70;;;;;;6129650;28;80343;-60
2023/03/30 10:08:12;;;;;;;4.15;1.88;;;23.50;35.70;;;;;;6130354;28;80362;-62
2023/03/30 10:11:13;;;;;;;3.63;1.77;;;23.50;35.70;;;;;;6129102;28;81458;-61
2023/03/30 10:14:13;;;;;;;4.00;1.80;;;23.50;35.80;;;;;;6125932;28;82336;-59
2023/03/30 10:17:14;;;;;;;2.78;1.60;;;23.50;35.90;;;;;;6129947;28;80904;-60
2023/03/30 10:20:14;;;;;;;2.72;1.90;;;23.50;35.90;;;;;;6128236;28;80568;-66
2023/03/30 10:23:16;;;;;;;3.78;1.83;;;23.50;35.90;;;;;;6123930;28;80580;-64
2023/03/30 10:26:19;;;;;;;3.97;2.50;;;23.60;36.00;;;;;;6129681;28;80616;-65
2023/03/30 10:29:20;;;;;;;4.47;2.50;;;23.40;34.90;;;;;;6126584;28;81521;-61
2023/03/30 10:32:21;;;;;;;6.82;2.72;;;23.20;35.20;;;;;;6128884;28;80469;-62
2023/03/30 10:35:21;;;;;;;5.03;2.08;;;23.00;35.00;;;;;;6128669;28;80815;-65
2023/03/30 10:38:22;;;;;;;3.95;2.30;;;23.00;35.00;;;;;;6128999;28;80101;-67
2023/03/30 10:41:22;;;;;;;4.63;2.28;;;23.10;35.10;;;;;;6128978;28;80976;-69
2023/03/30 10:44:23;;;;;;;3.97;2.38;;;23.10;35.00;;;;;;6118521;28;85155;-72
2023/03/30 10:47:24;;;;;;;4.05;2.10;;;23.20;35.00;;;;;;6130003;28;81798;-68
2023/03/30 10:50:25;;;;;;;5.32;2.28;;;23.20;35.10;;;;;;6130209;28;80547;-67
2023/03/30 10:53:26;;;;;;;4.65;2.30;;;23.20;35.10;;;;;;6129434;28;80193;-69
2023/03/30 10:56:26;;;;;;;3.85;2.22;;;23.20;34.90;;;;;;6130061;28;81324;-61
2023/03/30 10:59:27;;;;;;;6.63;2.47;;;23.10;34.70;;;;;;6115643;28;81125;-61
2023/03/30 11:02:27;;;;;;;4.25;2.45;;;23.00;35.20;;;;;;6122050;28;80680;-61
2023/03/30 11:05:28;;;;;;;5.15;2.05;;;23.10;35.20;;;;;;6129779;28;80512;-61
2023/03/30 11:08:29;;;;;;;3.53;2.00;;;23.30;35.30;;;;;;6125740;28;81280;-60
2023/03/30 11:11:30;;;;;;;4.28;2.58;;;23.30;35.30;;;;;;6123227;28;81350;-61
2023/03/30 11:14:30;;;;;;;4.72;2.15;;;23.30;35.20;;;;;;6129221;28;80804;-70
2023/03/30 11:17:31;;;;;;;4.30;2.25;;;23.40;35.20;;;;;;6129043;28;80093;-68
2023/03/30 11:20:31;;;;;;;5.28;2.95;;;23.40;35.10;;;;;;6129731;28;80426;-71
2023/03/30 11:23:32;;;;;;;3.20;2.05;;;23.50;35.20;;;;;;6127549;28;80322;-71
2023/03/30 11:26:32;;;;;;;6.05;2.33;;;23.50;35.30;;;;;;6127354;28;80517;-69
2023/03/30 11:29:33;;;;;;;3.88;2.03;;;23.60;35.30;;;;;;6129965;28;81605;-70
2023/03/30 11:32:33;;;;;;;5.63;2.30;;;23.60;35.20;;;;;;6129727;28;80941;-69
2023/03/30 11:35:34;;;;;;;3.63;2.22;;;23.70;35.20;;;;;;6119507;28;81681;-69
2023/03/30 11:38:34;;;;;;;3.47;2.20;;;23.70;35.20;;;;;;6126563;28;80400;-71
2023/03/30 11:41:35;;;;;;;2.97;2.20;;;23.70;35.20;;;;;;6129008;28;80610;-71
2023/03/30 11:44:35;;;;;;;3.78;2.03;;;23.70;35.30;;;;;;6128127;28;84525;-70
2023/03/30 11:47:36;;;;;;;5.10;2.25;;;23.70;35.40;;;;;;6115267;28;82594;-68
2023/03/30 11:50:37;;;;;;;5.18;2.20;;;23.70;35.30;;;;;;6121412;28;81059;-56
2023/03/30 11:53:37;;;;;;;5.45;2.65;;;23.60;35.30;;;;;;6123807;28;81186;-57
2023/03/30 11:56:38;;;;;;;5.07;2.17;;;23.60;35.30;;;;;;6119656;28;81961;-53
2023/03/30 11:59:38;;;;;;;4.47;1.98;;;23.60;35.50;;;;;;6126594;28;80767;-57
2023/03/30 12:02:39;;;;;;;3.88;2.10;;;23.60;35.50;;;;;;6129159;28;81623;-56
2023/03/30 12:05:39;;;;;;;4.38;2.35;;;23.50;35.60;;;;;;6125909;28;80857;-52
2023/03/30 12:08:41;;;;;;;4.95;2.20;;;23.50;35.70;;;;;;6129180;28;81030;-57
2023/03/30 12:11:41;;;;;;;3.88;2.10;;;23.50;35.80;;;;;;6124830;28;81454;-56
2023/03/30 12:14:43;;;;;;;6.15;1.95;;;23.50;36.00;;;;;;6129312;28;80569;-53
2023/03/30 12:17:43;;;;;;;3.55;2.00;;;23.50;36.00;;;;;;6127979;28;81538;-57
2023/03/30 12:20:44;;;;;;;6.63;2.13;;;23.50;36.00;;;;;;6129193;28;81652;-55
2023/03/30 12:23:45;;;;;;;4.75;2.05;;;23.50;36.00;;;;;;6122461;28;80043;-55
2023/03/30 12:26:45;;;;;;;4.15;1.95;;;23.50;36.10;;;;;;6125479;28;80567;-67
2023/03/30 12:29:46;;;;;;;5.15;2.35;;;23.50;36.10;;;;;;6128224;28;81458;-62
2023/03/30 12:32:46;;;;;;;3.78;2.25;;;23.50;36.50;;;;;;6125755;28;82883;-72
2023/03/30 12:35:47;;;;;;;4.55;1.63;;;23.50;36.70;;;;;;6119483;28;80798;-70
2023/03/30 12:38:47;;;;;;;5.47;2.00;;;23.60;36.60;;;;;;6108019;28;83607;-71
2023/03/30 12:41:48;;;;;;;5.78;2.13;;;23.50;36.60;;;;;;6124011;28;88257;-71
2023/03/30 12:44:49;;;;;;;7.95;2.55;;;23.50;36.60;;;;;;6125585;28;80703;-72
2023/03/30 12:47:50;;;;;;;4.28;2.22;;;23.50;36.70;;;;;;6124536;28;80535;-71
2023/03/30 12:50:50;;;;;;;6.22;2.63;;;23.50;36.70;;;;;;6124624;28;80328;-71
2023/03/30 12:53:51;;;;;;;5.72;2.15;;;23.50;36.70;;;;;;6124883;28;81466;-71
2023/03/30 12:56:51;;;;;;;4.30;2.42;;;23.50;36.60;;;;;;6122777;28;80700;-71
2023/03/30 12:59:52;;;;;;;5.10;2.47;;;23.40;36.60;;;;;;6124947;28;80456;-70
2023/03/30 13:02:53;;;;;;;5.03;2.55;;;23.40;36.60;;;;;;6129629;28;80203;-57
2023/03/30 13:05:54;;;;;;;4.80;2.42;;;23.40;36.70;;;;;;6128984;28;80432;-61
2023/03/30 13:08:54;;;;;;;6.57;2.45;;;23.40;36.90;;;;;;6128661;28;80820;-62
2023/03/30 13:11:55;;;;;;;6.32;2.60;;;23.40;37.20;;;;;;6128905;28;80619;-62
2023/03/30 13:14:56;;;;;;;7.15;2.30;;;23.40;37.70;;;;;;6128175;28;80864;-61
2023/03/30 13:17:57;;;;;;;4.47;1.85;;;23.40;37.80;;;;;;6128664;28;80700;-59
2023/03/30 13:20:57;;;;;;;6.10;2.38;;;23.30;38.00;;;;;;6129312;28;82334;-64
2023/03/30 13:23:58;;;;;;;4.57;2.42;;;23.40;38.00;;;;;;6123111;28;80942;-70
2023/03/30 13:26:58;;;;;;;10.77;2.40;;;23.40;38.20;;;;;;6128888;28;80538;-72
2023/03/30 13:29:59;;;;;;;6.40;2.47;;;23.40;38.30;;;;;;6129471;28;80903;-70
2023/03/30 13:33:00;;;;;;;7.63;2.40;;;23.40;38.40;;;;;;6127785;28;80563;-70
2023/03/30 13:36:00;;;;;;;7.82;2.72;;;23.40;38.30;;;;;;6128674;28;80880;-67
2023/03/30 13:39:01;;;;;;;7.25;2.47;;;23.40;38.70;;;;;;6129794;28;81484;-69
2023/03/30 13:42:02;;;;;;;6.28;2.55;;;23.40;38.50;;;;;;6129148;28;81496;-61
2023/03/30 13:45:02;;;;;;;3.38;2.28;;;23.40;38.50;;;;;;6128661;28;81264;-62
2023/03/30 13:48:03;;;;;;;8.65;2.40;;;23.40;38.80;;;;;;6128886;28;80480;-61
2023/03/30 13:51:03;;;;;;;4.57;2.33;;;23.40;39.00;;;;;;6127977;28;80522;-61
2023/03/30 13:54:04;;;;;;;8.73;2.33;;;23.40;38.90;;;;;;6127841;28;81562;-60
2023/03/30 13:57:04;;;;;;;10.32;2.53;;;23.40;39.00;;;;;;6124851;28;80941;-61
2023/03/30 14:00:05;;;;;;;6.57;2.22;;;23.40;38.90;;;;;;6127051;28;81152;-68
2023/03/30 14:03:07;;;;;;;12.07;2.78;;;23.40;38.90;;;;;;6126439;28;80519;-70
2023/03/30 14:06:07;;;;;;;18.58;2.80;;;23.40;39.20;;;;;;6127666;28;80334;-70
2023/03/30 14:09:08;;;;;;;8.00;2.40;;;23.40;39.40;;;;;;6128636;28;81137;-70
2023/03/30 14:12:09;;;;;;;7.80;2.40;;;23.40;39.30;;;;;;6126896;28;80836;-71
2023/03/30 14:15:09;;;;;;;6.80;2.33;;;23.40;39.50;;;;;;6127979;28;84362;-70
2023/03/30 14:18:10;;;;;;;7.03;2.58;;;23.40;39.70;;;;;;6127723;28;80909;-59
2023/03/30 14:21:10;;;;;;;4.55;1.85;;;23.40;39.60;;;;;;6123378;28;80937;-59
2023/03/30 14:24:11;;;;;;;8.68;2.65;;;23.40;39.70;;;;;;6119744;28;82658;-58
2023/03/30 14:27:11;;;;;;;5.75;2.33;;;23.40;40.30;;;;;;6119514;28;80455;-59
2023/03/30 14:30:12;;;;;;;5.95;2.90;;;23.40;39.50;;;;;;6120629;28;80524;-59
2023/03/30 14:33:12;;;;;;;8.20;2.38;;;23.40;39.40;;;;;;6126787;28;80835;-61
2023/03/30 14:36:14;;;;;;;6.15;1.85;;;23.30;39.50;;;;;;6127940;28;80387;-61
2023/03/30 14:39:14;;;;;;;9.85;2.47;;;23.30;39.80;;;;;;6128757;28;80672;-62
2023/03/30 14:42:15;;;;;;;10.43;2.58;;;23.40;39.80;;;;;;6129923;28;82258;-61
2023/03/30 14:45:16;;;;;;;5.63;2.65;;;23.30;40.00;;;;;;6128079;28;80511;-60
2023/03/30 14:48:16;;;;;;;3.90;2.00;;;23.30;40.00;;;;;;6123914;28;81047;-62
2023/03/30 14:51:17;;;;;;;8.02;3.10;;;23.30;39.80;;;;;;6125463;28;80561;-62
2023/03/30 14:54:17;;;;;;;4.68;2.33;;;23.30;39.90;;;;;;6126849;28;82888;-70
2023/03/30 14:57:18;;;;;;;7.63;1.95;;;23.30;40.00;;;;;;6125999;28;81459;-70
2023/03/30 15:00:23;;;;;;;5.82;2.40;;;23.30;40.20;;;;;;6124956;28;81465;-68
2023/03/30 15:03:24;;;;;;;9.63;2.77;;;23.30;40.20;;;;;;6126901;28;80939;-73
2023/03/30 15:06:24;;;;;;;9.20;2.35;;;23.30;40.90;;;;;;6112865;28;83499;-71
2023/03/30 15:09:25;;;;;;;4.90;2.17;;;23.30;40.20;;;;;;6119855;28;80467;-70
2023/03/30 15:12:26;;;;;;;8.23;2.58;;;23.30;40.00;;;;;;6123770;28;80479;-59
2023/03/30 15:15:26;;;;;;;3.97;2.22;;;23.20;39.90;;;;;;6123187;28;81764;-60
2023/03/30 15:18:27;;;;;;;4.65;2.05;;;23.20;39.80;;;;;;6112571;28;81069;-58
2023/03/30 15:21:27;;;;;;;5.28;2.60;;;23.20;39.80;;;;;;6118373;28;80847;-59
2023/03/30 15:24:28;;;;;;;16.13;5.78;;;23.20;39.80;;;;;;6118708;28;86624;-59
2023/03/30 15:27:29;;;;;;;20.25;9.05;;;23.20;39.90;;;;;;6124134;28;81880;-59
2023/03/30 15:30:29;;;;;;;17.35;9.63;;;23.20;39.90;;;;;;6122757;28;80544;-67
2023/03/30 15:33:30;;;;;;;26.02;12.07;;;23.20;40.00;;;;;;6120190;28;80342;-71
2023/03/30 15:36:30;;;;;;;23.75;12.55;;;23.20;40.40;;;;;;6119847;28;84175;-72
2023/03/30 15:39:35;;;;;;;20.23;11.52;;;23.20;40.20;;;;;;6120782;28;83518;-63
2023/03/30 15:42:35;;;;;;;19.67;10.38;;;23.20;40.20;;;;;;6122316;28;85260;-71
2023/03/30 15:45:36;;;;;;;18.73;10.75;;;23.20;40.40;;;;;;6120656;28;82924;-69
2023/03/30 15:48:36;;;;;;;20.85;10.88;;;23.30;40.80;;;;;;6117727;28;83702;-70
2023/03/30 15:51:37;;;;;;;18.58;10.80;;;23.30;41.10;;;;;;6117070;28;84290;-70
2023/03/30 15:54:37;;;;;;;21.58;11.07;;;23.30;41.30;;;;;;6113576;28;85243;-73